createdAt,value
2023-03-21T00:04:33.167Z,5.72
2023-03-21T00:09:40.513Z,4.75
2023-03-21T00:14:44.846Z,8.25
2023-03-21T00:19:51.556Z,7.50
2023-03-21T00:24:55.687Z,8.30
2023-03-21T00:30:01.167Z,6.25
2023-03-21T00:35:29.461Z,7.72
2023-03-21T00:40:33.061Z,6.40
2023-03-21T00:45:38.601Z,7.07
2023-03-21T00:50:44.105Z,3.60
2023-03-21T00:55:49.267Z,4.05
2023-03-21T01:00:51.454Z,3.47
2023-03-21T01:06:09.940Z,3.45
2023-03-21T01:11:15.739Z,7.45
2023-03-21T01:16:20.284Z,4.30
2023-03-21T01:21:23.041Z,4.03
2023-03-21T01:26:25.434Z,4.72
2023-03-21T01:31:27.605Z,3.72
2023-03-21T01:36:30.213Z,2.15
2023-03-21T01:41:44.393Z,2.90
2023-03-21T01:47:12.269Z,1.88
2023-03-21T01:52:35.964Z,1.15
2023-03-21T01:58:02.012Z,1.90
2023-03-21T02:03:26.345Z,0.68
2023-03-21T02:08:43.308Z,2.75
2023-03-21T02:14:01.144Z,2.88
2023-03-21T02:19:32.009Z,1.20
2023-03-21T02:25:21.794Z,2.42
2023-03-21T02:30:51.936Z,2.53
2023-03-21T02:36:05.654Z,2.85
2023-03-21T02:41:19.945Z,4.68
2023-03-21T02:46:51.259Z,1.50
2023-03-21T02:52:12.277Z,9.85
2023-03-21T02:57:19.578Z,6.00
2023-03-21T03:02:26.329Z,9.00
2023-03-21T03:08:00.908Z,11.80
2023-03-21T03:13:23.466Z,8.57
2023-03-21T03:19:01.531Z,16.98
2023-03-21T03:24:07.403Z,17.52
2023-03-21T03:29:14.646Z,20.67
2023-03-21T03:34:21.149Z,18.75
2023-03-21T03:39:40.081Z,33.28
2023-03-21T03:44:42.574Z,21.98
2023-03-21T03:49:52.987Z,23.08
2023-03-21T03:54:56.039Z,16.75
2023-03-21T04:00:00.384Z,23.20
2023-03-21T04:05:21.527Z,22.57
2023-03-21T04:10:24.069Z,14.80
2023-03-21T04:15:26.733Z,30.50
2023-03-21T04:20:37.317Z,23.08
2023-03-21T04:25:53.967Z,17.83
2023-03-21T04:31:05.160Z,18.60
2023-03-21T04:36:30.823Z,16.05
2023-03-21T04:41:37.498Z,19.55
2023-03-21T04:46:41.099Z,37.60
2023-03-21T04:51:45.409Z,32.40
2023-03-21T04:56:52.562Z,22.23
2023-03-21T05:01:56.914Z,20.55
2023-03-21T05:06:59.317Z,17.15
2023-03-21T05:12:01.994Z,20.25
2023-03-21T05:17:06.169Z,23.25
2023-03-21T05:22:12.230Z,29.70
2023-03-21T05:27:27.134Z,19.42
2023-03-21T05:32:29.547Z,19.58
2023-03-21T05:37:31.881Z,16.17
2023-03-21T05:42:37.158Z,22.15
2023-03-21T05:47:49.506Z,26.02
2023-03-21T05:52:52.519Z,19.42
2023-03-21T05:57:54.886Z,20.63
2023-03-21T06:03:02.117Z,22.00
2023-03-21T06:08:22.870Z,16.75
2023-03-21T06:13:26.198Z,44.88
2023-03-21T06:18:28.748Z,26.77
2023-03-21T06:28:52.287Z,22.15
2023-03-21T06:33:54.563Z,28.25
2023-03-21T06:38:57.906Z,20.67
2023-03-21T06:44:00.710Z,31.15
2023-03-21T06:49:05.882Z,28.45
2023-03-21T06:54:08.178Z,39.55
2023-03-21T06:59:15.109Z,37.75
2023-03-21T07:04:40.513Z,29.52
2023-03-21T07:09:47.840Z,35.30
2023-03-21T07:14:50.338Z,39.08
2023-03-21T07:19:52.625Z,23.73
2023-03-21T07:25:04.457Z,24.65
2023-03-21T07:30:13.964Z,54.87
2023-03-21T07:35:17.802Z,37.38
2023-03-21T07:40:20.845Z,39.13
2023-03-21T07:45:25.499Z,27.60
2023-03-21T07:50:27.824Z,30.10
2023-03-21T07:55:30.213Z,40.20
2023-03-21T08:00:32.876Z,39.65
2023-03-21T08:05:37.802Z,27.92
2023-03-21T08:10:42.096Z,28.80
2023-03-21T08:15:44.393Z,57.55
2023-03-21T08:20:46.723Z,46.30
2023-03-21T08:25:53.408Z,31.45
2023-03-21T08:30:55.734Z,28.33
2023-03-21T08:36:00.803Z,40.65
2023-03-21T08:41:03.388Z,26.60
2023-03-21T08:46:06.257Z,20.92
2023-03-21T08:51:08.846Z,23.98
2023-03-21T08:56:11.882Z,28.20
2023-03-21T09:01:15.936Z,23.67
2023-03-21T09:06:19.573Z,20.88
2023-03-21T09:11:21.871Z,28.38
2023-03-21T09:16:25.228Z,14.77
2023-03-21T09:21:28.772Z,17.45
2023-03-21T09:26:32.289Z,15.30
2023-03-21T09:31:35.934Z,23.23
2023-03-21T09:36:42.511Z,18.20
2023-03-21T09:42:07.876Z,16.75
2023-03-21T09:47:34.904Z,17.92
2023-03-21T09:53:08.070Z,14.65
2023-03-21T09:58:36.741Z,23.27
2023-03-21T10:03:39.017Z,25.35
2023-03-21T10:08:50.244Z,14.88
2023-03-21T10:13:57.327Z,15.82
2023-03-21T10:19:07.761Z,19.48
2023-03-21T10:24:13.945Z,12.40
2023-03-21T10:29:22.662Z,11.60
2023-03-21T10:34:28.693Z,7.95
2023-03-21T10:39:41.372Z,12.57
2023-03-21T10:50:16.773Z,16.27
2023-03-21T10:55:21.745Z,18.67
2023-03-21T11:00:30.295Z,9.15
2023-03-21T11:05:42.536Z,22.20
2023-03-21T11:11:07.430Z,21.08
2023-03-21T11:16:11.368Z,18.17
2023-03-21T11:21:15.680Z,12.65
2023-03-21T11:26:24.375Z,13.68
2023-03-21T11:31:41.132Z,13.10
2023-03-21T11:36:44.521Z,20.95
2023-03-21T11:41:51.386Z,16.42
2023-03-21T11:46:56.494Z,15.32
2023-03-21T11:52:21.988Z,8.85
2023-03-21T11:57:36.825Z,13.55
2023-03-21T12:03:05.932Z,7.47
2023-03-21T12:08:39.452Z,11.85
2023-03-21T12:14:08.069Z,9.15
2023-03-21T12:19:14.152Z,5.27
2023-03-21T12:24:23.387Z,9.52
2023-03-21T12:29:54.815Z,15.32
2023-03-21T12:35:15.766Z,8.98
2023-03-21T12:40:36.094Z,8.73
2023-03-21T12:45:47.016Z,13.60
2023-03-21T12:50:54.248Z,12.93
2023-03-21T12:56:02.296Z,12.43
2023-03-21T13:01:08.842Z,9.00
2023-03-21T13:06:15.547Z,11.30
2023-03-21T13:11:25.505Z,6.40
2023-03-21T13:16:34.037Z,12.23
2023-03-21T13:22:00.275Z,12.23
2023-03-21T13:27:37.702Z,12.25
2023-03-21T13:32:43.453Z,8.52
2023-03-21T13:38:15.160Z,3.72
2023-03-21T13:43:55.948Z,12.60
2023-03-21T13:49:11.516Z,12.20
2023-03-21T13:54:14.838Z,5.75
2023-03-21T13:59:35.771Z,10.43
2023-03-21T14:04:54.172Z,4.68
2023-03-21T14:10:16.815Z,13.07
2023-03-21T14:15:49.728Z,5.22
2023-03-21T14:21:02.170Z,12.68
2023-03-21T14:26:06.470Z,5.78
2023-03-21T14:31:16.679Z,10.57
2023-03-21T14:36:51.707Z,9.20
2023-03-21T14:42:11.156Z,12.35
2023-03-21T14:47:25.262Z,9.48
2023-03-21T14:52:34.482Z,8.27
2023-03-21T14:57:37.854Z,8.75
2023-03-21T15:02:44.758Z,3.85
2023-03-21T15:08:00.512Z,5.07
2023-03-21T15:13:20.768Z,13.13
2023-03-21T15:18:31.275Z,10.02
2023-03-21T15:23:42.132Z,7.97
2023-03-21T15:28:50.193Z,6.95
2023-03-21T15:33:54.072Z,4.47
2023-03-21T15:39:01.396Z,7.03
2023-03-21T15:44:12.290Z,12.55
2023-03-21T15:49:38.699Z,7.60
2023-03-21T15:54:56.177Z,10.25
2023-03-21T16:00:18.881Z,13.43
2023-03-21T16:05:31.327Z,15.15
2023-03-21T16:10:39.397Z,3.67
2023-03-21T16:21:09.901Z,8.65
2023-03-21T16:26:19.865Z,4.15
2023-03-21T16:31:30.870Z,7.10
2023-03-21T16:36:40.626Z,8.30
2023-03-21T16:41:44.110Z,10.57
2023-03-21T16:46:49.970Z,10.10
2023-03-21T16:51:56.863Z,7.20
2023-03-21T16:57:05.244Z,6.65
2023-03-21T17:02:15.453Z,5.15
2023-03-21T17:07:20.824Z,7.65
2023-03-21T17:12:26.162Z,7.05
2023-03-21T17:17:52.798Z,5.70
2023-03-21T17:22:55.781Z,7.13
2023-03-21T17:28:01.349Z,9.93
2023-03-21T17:33:15.545Z,10.82
2023-03-21T17:38:22.271Z,17.75
2023-03-21T17:43:28.657Z,7.32
2023-03-21T17:48:31.715Z,16.55
2023-03-21T17:53:45.209Z,11.65
2023-03-21T17:59:16.628Z,21.15
2023-03-21T18:04:23.870Z,12.27
2023-03-21T18:10:07.625Z,10.30
2023-03-21T18:15:45.107Z,16.40
2023-03-21T18:21:11.089Z,13.48
2023-03-21T18:26:31.963Z,25.20
2023-03-21T18:31:39.801Z,25.42
2023-03-21T18:36:43.192Z,15.15
2023-03-21T18:47:02.155Z,9.75
2023-03-21T18:52:14.633Z,13.95
2023-03-21T18:57:38.704Z,19.08
2023-03-21T19:02:47.690Z,31.20
2023-03-21T19:07:51.709Z,11.70
2023-03-21T19:12:59.956Z,10.90
2023-03-21T19:23:36.154Z,8.77
2023-03-21T19:28:49.087Z,15.38
2023-03-21T19:33:51.616Z,17.00
2023-03-21T19:38:59.054Z,8.95
2023-03-21T19:49:34.599Z,12.65
2023-03-21T19:54:49.444Z,27.45
2023-03-21T20:00:02.198Z,14.45
2023-03-21T20:05:34.015Z,12.30
2023-03-21T20:10:37.400Z,11.25
2023-03-21T20:15:48.014Z,22.20
2023-03-21T20:20:54.226Z,16.67
2023-03-21T20:25:58.546Z,20.25
2023-03-21T20:31:02.951Z,17.27
2023-03-21T20:42:02.733Z,10.43
2023-03-21T20:47:09.427Z,17.13
2023-03-21T20:52:54.412Z,17.75
2023-03-21T20:57:48.527Z,17.73
2023-03-21T21:02:53.195Z,8.77
2023-03-21T21:08:03.696Z,13.38
2023-03-21T21:13:12.364Z,9.07
2023-03-21T21:18:20.496Z,12.80
2023-03-21T21:23:29.535Z,14.68
2023-03-21T21:33:51.651Z,17.05
2023-03-21T21:38:59.411Z,15.07
2023-03-21T21:44:03.680Z,17.70
2023-03-21T21:49:12.157Z,14.68
2023-03-21T21:54:18.308Z,23.50
2023-03-21T21:59:24.873Z,16.90
2023-03-21T22:04:39.781Z,18.10
2023-03-21T22:09:45.277Z,18.25
2023-03-21T22:14:49.635Z,9.90
2023-03-21T22:20:06.511Z,18.80
2023-03-21T22:25:27.579Z,16.05
2023-03-21T22:30:59.938Z,23.15
2023-03-21T22:36:20.183Z,8.50
2023-03-21T22:41:44.064Z,23.85
2023-03-21T22:46:49.417Z,21.55
2023-03-21T22:52:16.312Z,21.58
2023-03-21T22:57:30.702Z,19.90
2023-03-21T23:08:02.598Z,20.95
2023-03-21T23:13:07.503Z,24.55
2023-03-21T23:18:13.032Z,20.85
2023-03-21T23:23:20.478Z,23.73
2023-03-21T23:28:27.041Z,18.83
2023-03-21T23:33:33.220Z,20.65
2023-03-21T23:38:38.429Z,12.73
2023-03-21T23:43:50.391Z,24.55
2023-03-21T23:49:10.060Z,20.17
2023-03-21T23:54:38.308Z,17.83
2023-03-21T23:59:41.769Z,13.82
